Valdosta, GA

4:19 PM EDT on August 21, 2017 (GMT -0400)
Moody Air Force Base

Weather History for KVAD - January, 2013

Change the Weather History Date:

Wednesday, January 9, 2013

  Actual Average Record
Temperature  
Mean Temperature 62 °F -  
Max Temperature 70 °F 60 °F 78 °F (2008)
Min Temperature 53 °F 41 °F 25 °F (2017)
Degree Days  
Heating Degree Days 4    
Growing Degree Days 12 (Base 50)    
Moisture  
Dew Point 60 °F    
Average Humidity 97    
Maximum Humidity 100    
Minimum Humidity 83    
Precipitation  
Precipitation 0.01 in - - ()
Sea Level Pressure  
Sea Level Pressure 30.30 in    
Wind  
Wind Speed 4 mph (NE)    
Max Wind Speed 10 mph    
Max Gust Speed 20 mph    
Visibility 7 miles    
Events Fog , Rain    
Averages and records for this station are not official NWS values.
T = Trace of Precipitation, MM = Missing Value Source: NWS Daily Summary

Daily Weather History Graph

Daily Weather History Graph

Search for Another Location

Airport or City:

Trip Planner

Search our weather history database for the weather conditions in past years. The results will help you decide how hot, cold, wet, or windy it might be!

Date:

Astronomy

Jan. 09, 2013 Rise Set
Actual Time 7:31 AM EST 5:48 PM EST
Civil Twilight 7:05 AM EST 6:14 PM EST
Nautical Twilight 6:35 AM EST 6:44 PM EST
Astronomical Twilight 6:06 AM EST 7:13 PM EST
Moon 5:09 AM EST (1/9) 3:49 PM EST (1/9)
Length of Visible Light 11h 09m
Length of Day
10h 16m
Waning Crescent, 6% of the Moon is Illuminated
Jan 9
Waning Crescent
Jan 11
New
Jan 18
First Quarter
Jan 26
Full
Feb 3
Last Quarter

Hourly Weather History & Observations

Time (EST) Temp. Dew Point Humidity Pressure Visibility Wind Dir Wind Speed Gust Speed Precip Events Conditions
12:55 AM 55.9 °F 54.0 °F 93% 30.27 in 10.0 mi ENE 4.6 mph - N/A   Clear
1:49 AM 55.4 °F 53.6 °F 94% 30.27 in 10.0 mi NE 3.5 mph - N/A   Scattered Clouds
1:51 AM 55.4 °F 53.6 °F 94% 30.27 in 10.0 mi Calm Calm - N/A   Mostly Cloudy
1:55 AM 54.7 °F 53.6 °F 96% 30.27 in 10.0 mi NE 3.5 mph - N/A   Mostly Cloudy
2:10 AM 55.4 °F 55.4 °F 100% 30.27 in 10.0 mi Calm Calm - N/A   Overcast
2:21 AM 55.4 °F 55.4 °F 100% 30.27 in 10.0 mi Calm Calm - N/A   Overcast
2:27 AM 55.4 °F 55.4 °F 100% 30.27 in 10.0 mi Calm Calm - N/A   Overcast
2:36 AM 55.4 °F 55.4 °F 100% 30.27 in 10.0 mi Calm Calm - N/A   Overcast
2:46 AM 55.4 °F 53.6 °F 94% 30.27 in 10.0 mi NNE 3.5 mph - N/A   Mostly Cloudy
2:48 AM 55.4 °F 53.6 °F 94% 30.27 in 10.0 mi NE 3.5 mph - N/A   Mostly Cloudy
2:49 AM 55.4 °F 53.6 °F 94% 30.27 in 10.0 mi NE 3.5 mph - N/A   Mostly Cloudy
2:50 AM 55.4 °F 53.6 °F 94% 30.27 in 10.0 mi NE 3.5 mph - N/A   Mostly Cloudy
2:55 AM 54.9 °F 54.0 °F 97% 30.27 in 10.0 mi NNE 4.6 mph - N/A   Mostly Cloudy
3:03 AM 53.6 °F 53.6 °F 100% 30.27 in 10.0 mi NE 4.6 mph - N/A   Mostly Cloudy
3:07 AM 53.6 °F 53.6 °F 100% 30.27 in 10.0 mi NE 3.5 mph - N/A   Mostly Cloudy
3:18 AM 55.4 °F 55.4 °F 100% 30.26 in 10.0 mi ENE 4.6 mph - N/A   Overcast
3:38 AM 55.4 °F 55.4 °F 100% 30.26 in 10.0 mi NE 4.6 mph - N/A   Overcast
3:55 AM 55.9 °F 55.0 °F 97% 30.26 in 10.0 mi NNE 5.8 mph - N/A   Overcast
4:01 AM 55.4 °F 55.4 °F 100% 30.26 in 10.0 mi NE 5.8 mph - N/A   Overcast
4:12 AM 55.4 °F 55.4 °F 100% 30.26 in 10.0 mi ENE 3.5 mph - N/A   Overcast
4:20 AM 55.4 °F 55.4 °F 100% 30.26 in 10.0 mi ENE 4.6 mph - N/A   Overcast
4:48 AM 57.2 °F 55.4 °F 94% 30.26 in 10.0 mi East 4.6 mph - N/A   Overcast
4:55 AM 56.5 °F 55.9 °F 98% 30.26 in 10.0 mi ENE 4.6 mph - N/A   Overcast
5:27 AM 57.2 °F 57.2 °F 100% 30.27 in 10.0 mi ENE 4.6 mph - N/A   Overcast
5:54 AM 57.2 °F 57.2 °F 100% 30.27 in 10.0 mi NE 4.6 mph - N/A   Overcast
5:55 AM 56.7 °F 56.3 °F 99% 30.27 in 10.0 mi NE 4.6 mph - N/A   Overcast
6:10 AM 57.2 °F 55.4 °F 94% 30.27 in 5.0 mi ENE 4.6 mph - N/A   Overcast
6:13 AM 57.2 °F 55.4 °F 94% 30.28 in 4.0 mi ENE 4.6 mph - N/A   Overcast
6:16 AM 57.2 °F 55.4 °F 94% 30.28 in 3.0 mi ENE 4.6 mph - N/A   Overcast
6:17 AM 57.2 °F 55.4 °F 94% 30.28 in 2.5 mi ENE 4.6 mph - N/A   Overcast
6:22 AM 57.2 °F 55.4 °F 94% 30.28 in 1.8 mi ENE 5.8 mph - N/A   Overcast
6:24 AM 57.2 °F 55.4 °F 94% 30.28 in 1.5 mi ENE 4.6 mph - N/A   Overcast
6:25 AM 57.2 °F 55.4 °F 94% 30.27 in 1.2 mi ENE 4.6 mph - N/A   Overcast
6:27 AM 57.2 °F 55.4 °F 94% 30.27 in 1.0 mi ENE 4.6 mph - N/A   Overcast
6:30 AM 57.2 °F 55.4 °F 94% 30.27 in 0.8 mi NE 4.6 mph - N/A   Mist
6:31 AM 57.2 °F 55.4 °F 94% 30.28 in 0.8 mi NE 3.5 mph - N/A   Mist
6:35 AM 57.2 °F 57.2 °F 100% 30.28 in 0.8 mi NE 4.6 mph - N/A   Mist
6:51 AM 57.2 °F 57.2 °F 100% 30.29 in 0.8 mi NE 4.6 mph - N/A   Mist
6:55 AM 56.5 °F 56.5 °F 100% 30.29 in 0.8 mi NNE 3.5 mph - N/A   Mist
6:59 AM 57.2 °F 57.2 °F 100% 30.29 in 1.0 mi NE 4.6 mph - N/A   Mist
7:03 AM 57.2 °F 57.2 °F 100% 30.29 in 1.0 mi NE 4.6 mph - N/A   Mist
7:08 AM 57.2 °F 57.2 °F 100% 30.29 in 1.2 mi NE 4.6 mph - N/A   Overcast
7:14 AM 57.2 °F 57.2 °F 100% 30.30 in 0.5 mi NE 3.5 mph - N/A Fog Fog
7:26 AM 57.2 °F 57.2 °F 100% 30.30 in 0.2 mi NNE 3.5 mph - N/A Fog Fog
7:37 AM 57.2 °F 57.2 °F 100% 30.31 in 0.5 mi NNE 3.5 mph - N/A Fog Fog
7:42 AM 57.2 °F 57.2 °F 100% 30.31 in 0.5 mi NNE 4.6 mph - N/A Fog Fog
7:55 AM 56.8 °F 56.8 °F 100% 30.32 in 0.5 mi NE 4.6 mph - N/A Fog Fog
7:59 AM 57.2 °F 57.2 °F 100% 30.32 in 0.8 mi NE 4.6 mph - N/A   Overcast
8:07 AM 57.2 °F 57.2 °F 100% 30.32 in 1.5 mi NE 3.5 mph - N/A   Overcast
8:08 AM 57.2 °F 57.2 °F 100% 30.32 in 1.5 mi NE 3.5 mph - N/A   Overcast
8:16 AM 57.2 °F 57.2 °F 100% 30.33 in 0.8 mi NNE 3.5 mph - N/A   Overcast
8:55 AM 58.1 °F 58.1 °F 100% 30.35 in 0.5 mi NE 4.6 mph - N/A Fog Fog
9:08 AM 59.0 °F 59.0 °F 100% 30.35 in 0.5 mi NE 5.8 mph - N/A Fog Fog
9:37 AM 59.0 °F 59.0 °F 100% 30.35 in 0.8 mi NE 4.6 mph - N/A   Overcast
9:39 AM 59.0 °F 59.0 °F 100% 30.35 in 0.8 mi NE 4.6 mph - N/A   Overcast
9:40 AM 59.0 °F 59.0 °F 100% 30.35 in 1.0 mi NE 4.6 mph - N/A   Overcast
9:45 AM 59.0 °F 59.0 °F 100% 30.35 in 1.2 mi ENE 4.6 mph - N/A   Overcast
9:48 AM 59.0 °F 59.0 °F 100% 30.35 in 1.5 mi East 4.6 mph - N/A   Overcast
9:55 AM 60.1 °F 59.9 °F 99% - 1.8 mi ENE 5.8 mph - N/A   Overcast
9:58 AM 60.8 °F 60.8 °F 100% - 1.8 mi ENE 4.6 mph - N/A   Overcast
9:59 AM 60.8 °F 60.8 °F 100% 30.36 in 2.0 mi NE 4.6 mph - N/A   Overcast
10:04 AM 60.8 °F 60.8 °F 100% 30.36 in 3.0 mi NE 4.6 mph - N/A   Overcast
10:55 AM 61.5 °F 61.5 °F 100% 30.36 in 4.0 mi NE 4.6 mph - N/A   Overcast
11:03 AM 62.6 °F 62.6 °F 100% 30.36 in 2.5 mi NE 5.8 mph - N/A   Overcast
11:12 AM 62.6 °F 62.6 °F 100% 30.36 in 3.0 mi Calm Calm - N/A   Overcast
11:55 AM 63.3 °F 63.3 °F 100% 30.33 in 10.0 mi ENE 4.6 mph - N/A   Overcast
12:23 PM 66.2 °F 64.4 °F 94% 30.30 in 10.0 mi Variable 3.5 mph - N/A   Overcast
12:33 PM 66.2 °F 64.4 °F 94% 30.31 in 10.0 mi NE 4.6 mph - N/A   Overcast
12:41 PM 68.0 °F 64.4 °F 88% 30.31 in 10.0 mi East 4.6 mph - N/A   Overcast
12:47 PM 68.0 °F 64.4 °F 88% 30.31 in 10.0 mi Variable 4.6 mph - N/A   Overcast
12:55 PM 67.8 °F 64.2 °F 88% 30.30 in 10.0 mi NE 5.8 mph - N/A   Overcast
1:03 PM 68.0 °F 64.4 °F 88% 30.30 in 10.0 mi ENE 4.6 mph - N/A   Overcast
1:13 PM 68.0 °F 64.4 °F 88% 30.30 in 10.0 mi ENE 5.8 mph - N/A   Overcast
1:33 PM 68.0 °F 64.4 °F 88% 30.30 in 10.0 mi NNE 4.6 mph - N/A   Overcast
1:50 PM 69.8 °F 64.4 °F 83% 30.30 in 10.0 mi NNE 4.6 mph - N/A   Overcast
1:55 PM 69.4 °F 64.6 °F 84% 30.30 in 10.0 mi NNE 3.5 mph - N/A   Overcast
2:20 PM 69.8 °F 64.4 °F 83% 30.29 in 10.0 mi NNE 5.8 mph - N/A   Mostly Cloudy
2:55 PM 70.5 °F 65.1 °F 83% 30.29 in 10.0 mi NE 6.9 mph - N/A   Overcast
3:06 PM 69.8 °F 66.2 °F 88% 30.29 in 5.0 mi NE 5.8 mph - N/A Rain Light Rain
3:26 PM 68.0 °F 68.0 °F 100% 30.29 in 10.0 mi North 3.5 mph - N/A   Overcast
3:55 PM 69.6 °F 68.0 °F 95% 30.29 in 10.0 mi North 3.5 mph - 0.01 in   Mostly Cloudy
4:55 PM 70.3 °F 66.9 °F 89% 30.29 in 10.0 mi ENE 6.9 mph - N/A   Overcast
5:55 PM 69.3 °F 67.1 °F 93% 30.30 in 10.0 mi NE 4.6 mph - N/A   Overcast
6:55 PM 66.6 °F 66.2 °F 99% 30.31 in 10.0 mi NE 4.6 mph - N/A   Scattered Clouds
7:55 PM 66.2 °F 66.0 °F 99% 30.32 in 10.0 mi NE 6.9 mph - N/A   Clear
8:22 PM 66.2 °F 66.2 °F 100% 30.32 in 10.0 mi ENE 6.9 mph - N/A   Mostly Cloudy
8:37 PM 66.2 °F 66.2 °F 100% 30.33 in 10.0 mi Variable 5.8 mph - N/A   Scattered Clouds
8:55 PM 65.8 °F 65.5 °F 99% 30.33 in 10.0 mi ENE 4.6 mph - N/A   Partly Cloudy
9:08 PM 66.2 °F 66.2 °F 100% 30.34 in 10.0 mi East 4.6 mph - N/A   Mostly Cloudy
9:10 PM 66.2 °F 66.2 °F 100% 30.34 in 10.0 mi East 4.6 mph - N/A   Mostly Cloudy
9:14 PM 66.2 °F 66.2 °F 100% 30.34 in 10.0 mi East 5.8 mph - N/A   Mostly Cloudy
9:18 PM 66.2 °F 66.2 °F 100% 30.34 in 10.0 mi East 5.8 mph - N/A   Mostly Cloudy
9:26 PM 66.2 °F 66.2 °F 100% 30.34 in 10.0 mi East 6.9 mph - N/A   Overcast
9:54 PM 68.0 °F 68.0 °F 100% 30.35 in 10.0 mi East 6.9 mph - N/A   Overcast
9:55 PM 67.3 °F 67.3 °F 100% 30.35 in 10.0 mi East 6.9 mph - N/A   Overcast
10:30 PM 68.0 °F 68.0 °F 100% 30.35 in 10.0 mi ENE 6.9 mph - N/A   Overcast
10:55 PM 67.5 °F 67.1 °F 99% 30.35 in 10.0 mi East 10.4 mph - N/A   Overcast
11:08 PM 68.0 °F 66.2 °F 94% 30.36 in 10.0 mi East 6.9 mph - N/A   Overcast
11:27 PM 66.2 °F 66.2 °F 100% 30.35 in 10.0 mi East 10.4 mph 19.6 mph N/A   Overcast
11:36 PM 66.2 °F 66.2 °F 100% 30.35 in 10.0 mi East 8.1 mph - N/A   Overcast
11:47 PM 66.2 °F 66.2 °F 100% 30.36 in 10.0 mi East 8.1 mph - N/A   Overcast
11:49 PM 66.2 °F 66.2 °F 100% 30.36 in 10.0 mi East 5.8 mph - N/A   Overcast
11:55 PM 66.6 °F 66.2 °F 99% 30.36 in 10.0 mi East 8.1 mph - N/A   Overcast